sensor_id;sensor_type;location;lat;lon;timestamp;pressure;altitude;pressure_sealevel;temperature;humidity
40372;BME280;28564;53.346;-6.554;2023-09-30T00:01:24;101502.84;;;16.41;45.48
40372;BME280;28564;53.346;-6.554;2023-09-30T00:03:52;101506.01;;;16.19;45.46
40372;BME280;28564;53.346;-6.554;2023-09-30T00:06:19;101509.05;;;16.17;45.44
40372;BME280;28564;53.346;-6.554;2023-09-30T00:08:46;101502.35;;;16.37;45.41
40372;BME280;28564;53.346;-6.554;2023-09-30T00:11:15;101506.19;;;16.34;45.40
40372;BME280;28564;53.346;-6.554;2023-09-30T00:13:43;101505.31;;;16.29;45.39
40372;BME280;28564;53.346;-6.554;2023-09-30T00:16:10;101507.40;;;16.25;45.39
40372;BME280;28564;53.346;-6.554;2023-09-30T00:18:37;101513.16;;;15.98;45.44
40372;BME280;28564;53.346;-6.554;2023-09-30T00:21:04;101516.04;;;16.14;45.49
40372;BME280;28564;53.346;-6.554;2023-09-30T00:23:31;101520.61;;;16.10;45.55
40372;BME280;28564;53.346;-6.554;2023-09-30T00:25:58;101517.62;;;16.06;45.58
40372;BME280;28564;53.346;-6.554;2023-09-30T00:28:26;101513.17;;;16.20;45.59
40372;BME280;28564;53.346;-6.554;2023-09-30T00:30:53;101513.14;;;16.07;45.68
40372;BME280;28564;53.346;-6.554;2023-09-30T00:33:21;101513.29;;;15.77;45.80
40372;BME280;28564;53.346;-6.554;2023-09-30T00:35:48;101512.16;;;15.74;45.84
40372;BME280;28564;53.346;-6.554;2023-09-30T00:38:15;101511.63;;;15.72;45.86
40372;BME280;28564;53.346;-6.554;2023-09-30T00:40:47;101513.95;;;15.72;45.85
40372;BME280;28564;53.346;-6.554;2023-09-30T00:43:18;101512.86;;;15.71;45.78
40372;BME280;28564;53.346;-6.554;2023-09-30T00:45:47;101518.18;;;15.67;45.77
40372;BME280;28564;53.346;-6.554;2023-09-30T00:48:15;101525.52;;;15.65;45.79
40372;BME280;28564;53.346;-6.554;2023-09-30T00:50:43;101525.00;;;15.63;45.79
40372;BME280;28564;53.346;-6.554;2023-09-30T00:53:10;101517.06;;;15.61;45.79
40372;BME280;28564;53.346;-6.554;2023-09-30T00:55:37;101504.64;;;15.81;45.80
40372;BME280;28564;53.346;-6.554;2023-09-30T00:58:05;101497.66;;;15.53;45.77
40372;BME280;28564;53.346;-6.554;2023-09-30T01:00:33;101492.88;;;15.93;45.76
40372;BME280;28564;53.346;-6.554;2023-09-30T01:03:01;101497.16;;;15.61;45.83
40372;BME280;28564;53.346;-6.554;2023-09-30T01:05:28;101504.94;;;15.34;45.88
40372;BME280;28564;53.346;-6.554;2023-09-30T01:07:55;101507.71;;;15.50;45.89
40372;BME280;28564;53.346;-6.554;2023-09-30T01:10:23;101501.63;;;15.24;45.92
40372;BME280;28564;53.346;-6.554;2023-09-30T01:12:50;101502.85;;;15.42;45.97
40372;BME280;28564;53.346;-6.554;2023-09-30T01:15:18;101518.91;;;15.41;45.99
40372;BME280;28564;53.346;-6.554;2023-09-30T01:17:45;101520.97;;;15.66;45.99
40372;BME280;28564;53.346;-6.554;2023-09-30T01:20:12;101518.90;;;15.14;46.01
40372;BME280;28564;53.346;-6.554;2023-09-30T01:22:42;101522.94;;;15.33;46.02
40372;BME280;28564;53.346;-6.554;2023-09-30T01:25:09;101530.88;;;15.28;46.03
40372;BME280;28564;53.346;-6.554;2023-09-30T01:27:36;101534.40;;;15.24;46.06
40372;BME280;28564;53.346;-6.554;2023-09-30T01:30:05;101535.19;;;15.47;46.10
40372;BME280;28564;53.346;-6.554;2023-09-30T01:32:32;101530.48;;;15.18;46.09
40372;BME280;28564;53.346;-6.554;2023-09-30T01:34:59;101534.52;;;15.37;46.00
40372;BME280;28564;53.346;-6.554;2023-09-30T01:37:27;101542.75;;;15.27;46.01
40372;BME280;28564;53.346;-6.554;2023-09-30T01:39:54;101536.60;;;15.22;46.14
40372;BME280;28564;53.346;-6.554;2023-09-30T01:42:21;101531.57;;;15.20;46.19
40372;BME280;28564;53.346;-6.554;2023-09-30T01:44:49;101528.64;;;15.17;46.19
40372;BME280;28564;53.346;-6.554;2023-09-30T01:47:16;101525.95;;;15.14;46.21
40372;BME280;28564;53.346;-6.554;2023-09-30T01:49:43;101522.75;;;15.11;46.20
40372;BME280;28564;53.346;-6.554;2023-09-30T01:52:10;101513.86;;;15.08;46.24
40372;BME280;28564;53.346;-6.554;2023-09-30T01:54:37;101514.29;;;15.06;46.28
40372;BME280;28564;53.346;-6.554;2023-09-30T01:57:05;101510.30;;;15.08;46.35
40372;BME280;28564;53.346;-6.554;2023-09-30T01:59:32;101507.35;;;14.86;46.51
40372;BME280;28564;53.346;-6.554;2023-09-30T02:01:59;101517.31;;;15.22;46.63
40372;BME280;28564;53.346;-6.554;2023-09-30T02:04:27;101521.18;;;15.34;46.66
40372;BME280;28564;53.346;-6.554;2023-09-30T02:06:54;101518.02;;;15.17;46.59
40372;BME280;28564;53.346;-6.554;2023-09-30T02:09:21;101516.50;;;15.01;46.46
40372;BME280;28564;53.346;-6.554;2023-09-30T02:11:48;101515.37;;;15.29;46.42
40372;BME280;28564;53.346;-6.554;2023-09-30T02:14:16;101510.12;;;15.63;46.39
40372;BME280;28564;53.346;-6.554;2023-09-30T02:16:43;101503.02;;;15.46;46.35
40372;BME280;28564;53.346;-6.554;2023-09-30T02:19:10;101494.89;;;15.53;46.27
40372;BME280;28564;53.346;-6.554;2023-09-30T02:21:37;101496.75;;;15.34;46.15
40372;BME280;28564;53.346;-6.554;2023-09-30T02:24:05;101505.82;;;15.58;46.10
40372;BME280;28564;53.346;-6.554;2023-09-30T02:26:32;101505.12;;;15.39;46.10
40372;BME280;28564;53.346;-6.554;2023-09-30T02:28:59;101501.89;;;15.63;46.12
40372;BME280;28564;53.346;-6.554;2023-09-30T02:31:27;101488.56;;;15.44;46.06
40372;BME280;28564;53.346;-6.554;2023-09-30T02:33:54;101480.72;;;15.65;45.93
40372;BME280;28564;53.346;-6.554;2023-09-30T02:36:21;101479.85;;;15.61;45.86
40372;BME280;28564;53.346;-6.554;2023-09-30T02:38:48;101478.01;;;15.32;45.87
40372;BME280;28564;53.346;-6.554;2023-09-30T02:41:16;101480.25;;;15.48;45.92
40372;BME280;28564;53.346;-6.554;2023-09-30T02:43:43;101470.34;;;15.71;45.98
40372;BME280;28564;53.346;-6.554;2023-09-30T02:46:10;101463.78;;;15.43;46.03
40372;BME280;28564;53.346;-6.554;2023-09-30T02:48:37;101466.29;;;15.44;46.10
40372;BME280;28564;53.346;-6.554;2023-09-30T02:51:08;101472.32;;;15.66;46.05
40372;BME280;28564;53.346;-6.554;2023-09-30T02:53:36;101474.84;;;15.34;46.12
40372;BME280;28564;53.346;-6.554;2023-09-30T02:56:03;101472.39;;;15.35;46.31
40372;BME280;28564;53.346;-6.554;2023-09-30T02:58:31;101463.87;;;15.46;46.45
40372;BME280;28564;53.346;-6.554;2023-09-30T03:00:58;101459.05;;;15.35;46.47
40372;BME280;28564;53.346;-6.554;2023-09-30T03:03:25;101457.58;;;15.46;46.41
40372;BME280;28564;53.346;-6.554;2023-09-30T03:05:52;101451.17;;;15.50;46.24
40372;BME280;28564;53.346;-6.554;2023-09-30T03:08:20;101445.36;;;15.50;46.16
40372;BME280;28564;53.346;-6.554;2023-09-30T03:10:47;101439.54;;;15.71;46.17
40372;BME280;28564;53.346;-6.554;2023-09-30T03:13:14;101438.00;;;15.53;46.24
40372;BME280;28564;53.346;-6.554;2023-09-30T03:15:41;101437.28;;;15.55;46.17
40372;BME280;28564;53.346;-6.554;2023-09-30T03:18:09;101434.66;;;15.52;46.17
40372;BME280;28564;53.346;-6.554;2023-09-30T03:20:36;101432.62;;;15.74;46.13
40372;BME280;28564;53.346;-6.554;2023-09-30T03:23:03;101430.29;;;15.48;46.11
40372;BME280;28564;53.346;-6.554;2023-09-30T03:25:31;101424.39;;;15.42;46.09
40372;BME280;28564;53.346;-6.554;2023-09-30T03:27:58;101421.60;;;15.55;46.08
40372;BME280;28564;53.346;-6.554;2023-09-30T03:30:25;101417.23;;;15.26;46.17
40372;BME280;28564;53.346;-6.554;2023-09-30T03:32:52;101415.59;;;15.19;46.21
40372;BME280;28564;53.346;-6.554;2023-09-30T03:35:20;101414.34;;;15.33;46.27
40372;BME280;28564;53.346;-6.554;2023-09-30T03:37:47;101412.45;;;15.26;46.37
40372;BME280;28564;53.346;-6.554;2023-09-30T03:40:14;101413.86;;;15.21;46.49
40372;BME280;28564;53.346;-6.554;2023-09-30T03:42:42;101410.22;;;15.24;46.67
40372;BME280;28564;53.346;-6.554;2023-09-30T03:45:10;101408.21;;;15.58;46.76
40372;BME280;28564;53.346;-6.554;2023-09-30T03:47:39;101407.24;;;15.39;46.80
40372;BME280;28564;53.346;-6.554;2023-09-30T03:50:07;101416.32;;;15.26;46.74
40372;BME280;28564;53.346;-6.554;2023-09-30T03:52:35;101421.00;;;15.54;46.67
40372;BME280;28564;53.346;-6.554;2023-09-30T03:55:02;101426.03;;;15.57;46.64
40372;BME280;28564;53.346;-6.554;2023-09-30T03:57:29;101426.92;;;15.39;46.65
40372;BME280;28564;53.346;-6.554;2023-09-30T03:59:57;101431.76;;;15.67;46.61
40372;BME280;28564;53.346;-6.554;2023-09-30T04:02:24;101429.98;;;15.46;46.53
40372;BME280;28564;53.346;-6.554;2023-09-30T04:04:51;101427.48;;;15.69;46.43
40372;BME280;28564;53.346;-6.554;2023-09-30T04:07:18;101425.79;;;15.66;46.35
40372;BME280;28564;53.346;-6.554;2023-09-30T04:09:47;101427.43;;;15.64;46.37
40372;BME280;28564;53.346;-6.554;2023-09-30T04:12:14;101430.34;;;15.42;46.48
40372;BME280;28564;53.346;-6.554;2023-09-30T04:14:41;101427.30;;;15.45;46.53
40372;BME280;28564;53.346;-6.554;2023-09-30T04:17:08;101426.41;;;15.52;46.48
40372;BME280;28564;53.346;-6.554;2023-09-30T04:19:36;101426.30;;;15.55;46.42
40372;BME280;28564;53.346;-6.554;2023-09-30T04:22:03;101423.34;;;15.55;46.36
40372;BME280;28564;53.346;-6.554;2023-09-30T04:24:30;101420.18;;;15.53;46.26
40372;BME280;28564;53.346;-6.554;2023-09-30T04:26:57;101411.71;;;15.48;46.19
40372;BME280;28564;53.346;-6.554;2023-09-30T04:29:24;101407.03;;;15.90;46.16
40372;BME280;28564;53.346;-6.554;2023-09-30T04:31:51;101406.19;;;15.32;46.20
40372;BME280;28564;53.346;-6.554;2023-09-30T04:34:18;101403.33;;;15.48;46.29
40372;BME280;28564;53.346;-6.554;2023-09-30T04:36:46;101398.58;;;15.20;46.37
40372;BME280;28564;53.346;-6.554;2023-09-30T04:39:14;101387.72;;;15.65;46.42
40372;BME280;28564;53.346;-6.554;2023-09-30T04:41:41;101374.11;;;15.15;46.50
40372;BME280;28564;53.346;-6.554;2023-09-30T04:44:08;101369.53;;;15.61;46.49
40372;BME280;28564;53.346;-6.554;2023-09-30T04:46:35;101365.12;;;15.12;46.53
40372;BME280;28564;53.346;-6.554;2023-09-30T04:49:03;101370.55;;;15.32;46.51
40372;BME280;28564;53.346;-6.554;2023-09-30T04:51:30;101368.49;;;15.30;46.55
40372;BME280;28564;53.346;-6.554;2023-09-30T04:53:57;101361.38;;;15.51;46.47
40372;BME280;28564;53.346;-6.554;2023-09-30T04:56:24;101363.04;;;14.97;46.53
40372;BME280;28564;53.346;-6.554;2023-09-30T04:58:52;101363.95;;;15.44;46.60
40372;BME280;28564;53.346;-6.554;2023-09-30T05:01:19;101363.76;;;15.18;46.63
40372;BME280;28564;53.346;-6.554;2023-09-30T05:03:46;101363.65;;;15.19;46.66
40372;BME280;28564;53.346;-6.554;2023-09-30T05:06:13;101363.73;;;15.18;46.66
40372;BME280;28564;53.346;-6.554;2023-09-30T05:08:40;101367.43;;;15.21;46.68
40372;BME280;28564;53.346;-6.554;2023-09-30T05:11:07;101368.33;;;15.23;46.67
40372;BME280;28564;53.346;-6.554;2023-09-30T05:13:34;101369.96;;;15.24;46.60
40372;BME280;28564;53.346;-6.554;2023-09-30T05:16:01;101370.55;;;15.05;46.65
40372;BME280;28564;53.346;-6.554;2023-09-30T05:18:29;101370.70;;;15.28;46.60
40372;BME280;28564;53.346;-6.554;2023-09-30T05:20:56;101363.83;;;15.06;46.59
40372;BME280;28564;53.346;-6.554;2023-09-30T05:23:23;101364.85;;;15.07;46.60
40372;BME280;28564;53.346;-6.554;2023-09-30T05:25:50;101368.87;;;15.32;46.58
40372;BME280;28564;53.346;-6.554;2023-09-30T05:28:17;101367.69;;;15.32;46.54
40372;BME280;28564;53.346;-6.554;2023-09-30T05:30:44;101362.93;;;15.02;46.48
40372;BME280;28564;53.346;-6.554;2023-09-30T05:33:12;101360.78;;;15.21;46.52
40372;BME280;28564;53.346;-6.554;2023-09-30T05:35:40;101365.04;;;14.97;46.62
40372;BME280;28564;53.346;-6.554;2023-09-30T05:38:08;101367.31;;;14.99;46.71
40372;BME280;28564;53.346;-6.554;2023-09-30T05:40:36;101364.71;;;15.27;46.67
40372;BME280;28564;53.346;-6.554;2023-09-30T05:43:04;101367.08;;;15.06;46.65
40372;BME280;28564;53.346;-6.554;2023-09-30T05:45:31;101372.38;;;15.57;46.66
40372;BME280;28564;53.346;-6.554;2023-09-30T05:47:58;101374.77;;;15.32;46.70
40372;BME280;28564;53.346;-6.554;2023-09-30T05:50:26;101372.47;;;15.65;46.73
40372;BME280;28564;53.346;-6.554;2023-09-30T05:52:53;101373.04;;;15.73;46.74
40372;BME280;28564;53.346;-6.554;2023-09-30T05:55:21;101379.21;;;15.32;46.72
40372;BME280;28564;53.346;-6.554;2023-09-30T05:57:49;101380.56;;;15.61;46.69
40372;BME280;28564;53.346;-6.554;2023-09-30T06:00:17;101378.92;;;15.46;46.62
40372;BME280;28564;53.346;-6.554;2023-09-30T06:02:45;101381.29;;;15.52;46.55
40372;BME280;28564;53.346;-6.554;2023-09-30T06:05:12;101379.83;;;15.57;46.51
40372;BME280;28564;53.346;-6.554;2023-09-30T06:07:39;101375.88;;;15.83;46.43
40372;BME280;28564;53.346;-6.554;2023-09-30T06:10:07;101375.35;;;15.64;46.41
40372;BME280;28564;53.346;-6.554;2023-09-30T06:12:34;101373.55;;;15.67;46.36
40372;BME280;28564;53.346;-6.554;2023-09-30T06:15:01;101369.85;;;15.69;46.34
40372;BME280;28564;53.346;-6.554;2023-09-30T06:17:28;101365.88;;;15.49;46.32
40372;BME280;28564;53.346;-6.554;2023-09-30T06:19:56;101362.47;;;15.73;46.32
40372;BME280;28564;53.346;-6.554;2023-09-30T06:22:23;101362.86;;;15.75;46.31
40372;BME280;28564;53.346;-6.554;2023-09-30T06:24:51;101363.78;;;15.77;46.28
40372;BME280;28564;53.346;-6.554;2023-09-30T06:27:18;101356.84;;;15.77;46.27
40372;BME280;28564;53.346;-6.554;2023-09-30T06:29:45;101361.36;;;15.77;46.28
40372;BME280;28564;53.346;-6.554;2023-09-30T06:32:12;101354.67;;;15.57;46.30
40372;BME280;28564;53.346;-6.554;2023-09-30T06:34:39;101347.51;;;15.77;46.25
40372;BME280;28564;53.346;-6.554;2023-09-30T06:37:06;101335.79;;;15.77;46.32
40372;BME280;28564;53.346;-6.554;2023-09-30T06:39:33;101329.89;;;15.76;46.34
40372;BME280;28564;53.346;-6.554;2023-09-30T06:42:00;101335.74;;;16.01;46.39
40372;BME280;28564;53.346;-6.554;2023-09-30T06:44:27;101338.46;;;15.81;46.45
40372;BME280;28564;53.346;-6.554;2023-09-30T06:46:55;101336.21;;;15.83;46.47
40372;BME280;28564;53.346;-6.554;2023-09-30T06:49:22;101334.48;;;15.87;46.51
40372;BME280;28564;53.346;-6.554;2023-09-30T06:51:49;101335.11;;;15.66;46.59
40372;BME280;28564;53.346;-6.554;2023-09-30T06:54:16;101333.90;;;15.93;46.67
40372;BME280;28564;53.346;-6.554;2023-09-30T06:56:43;101330.81;;;15.99;46.72
40372;BME280;28564;53.346;-6.554;2023-09-30T06:59:10;101317.19;;;16.07;46.71
40372;BME280;28564;53.346;-6.554;2023-09-30T07:01:37;101309.88;;;16.13;46.71
40372;BME280;28564;53.346;-6.554;2023-09-30T07:04:05;101303.70;;;16.21;46.67
40372;BME280;28564;53.346;-6.554;2023-09-30T07:06:32;101303.44;;;16.27;46.66
40372;BME280;28564;53.346;-6.554;2023-09-30T07:09:00;101306.78;;;15.83;46.63
40372;BME280;28564;53.346;-6.554;2023-09-30T07:11:27;101302.07;;;16.16;46.60
40372;BME280;28564;53.346;-6.554;2023-09-30T07:13:55;101294.17;;;15.96;46.55
40372;BME280;28564;53.346;-6.554;2023-09-30T07:16:22;101294.62;;;16.00;46.54
40372;BME280;28564;53.346;-6.554;2023-09-30T07:18:50;101292.47;;;16.30;46.59
40372;BME280;28564;53.346;-6.554;2023-09-30T07:21:17;101287.83;;;16.34;46.62
40372;BME280;28564;53.346;-6.554;2023-09-30T07:23:45;101294.68;;;16.38;46.61
40372;BME280;28564;53.346;-6.554;2023-09-30T07:26:12;101293.62;;;16.13;46.63
40372;BME280;28564;53.346;-6.554;2023-09-30T07:28:39;101287.91;;;16.13;46.77
40372;BME280;28564;53.346;-6.554;2023-09-30T07:31:06;101287.08;;;16.22;46.85
40372;BME280;28564;53.346;-6.554;2023-09-30T07:33:33;101288.09;;;16.28;46.81
40372;BME280;28564;53.346;-6.554;2023-09-30T07:36:00;101291.03;;;16.33;46.82
40372;BME280;28564;53.346;-6.554;2023-09-30T07:38:27;101288.14;;;16.37;46.82
40372;BME280;28564;53.346;-6.554;2023-09-30T07:40:54;101292.46;;;16.39;46.84
40372;BME280;28564;53.346;-6.554;2023-09-30T07:43:21;101295.60;;;16.71;46.85
40372;BME280;28564;53.346;-6.554;2023-09-30T07:45:48;101289.27;;;16.48;46.86
40372;BME280;28564;53.346;-6.554;2023-09-30T07:48:15;101289.79;;;16.53;46.87
40372;BME280;28564;53.346;-6.554;2023-09-30T07:50:43;101289.15;;;16.87;46.87
40372;BME280;28564;53.346;-6.554;2023-09-30T07:53:10;101293.29;;;16.68;46.83
40372;BME280;28564;53.346;-6.554;2023-09-30T07:55:37;101293.22;;;16.75;46.72
40372;BME280;28564;53.346;-6.554;2023-09-30T07:58:04;101295.22;;;16.80;46.69
40372;BME280;28564;53.346;-6.554;2023-09-30T08:00:31;101295.31;;;16.83;46.69
40372;BME280;28564;53.346;-6.554;2023-09-30T08:02:58;101303.65;;;16.86;46.67
40372;BME280;28564;53.346;-6.554;2023-09-30T08:05:25;101297.01;;;16.90;46.68
40372;BME280;28564;53.346;-6.554;2023-09-30T08:07:52;101294.52;;;16.95;46.62
40372;BME280;28564;53.346;-6.554;2023-09-30T08:10:19;101284.02;;;16.93;46.57
40372;BME280;28564;53.346;-6.554;2023-09-30T08:12:46;101281.11;;;16.89;46.59
40372;BME280;28564;53.346;-6.554;2023-09-30T08:15:14;101276.77;;;16.68;46.65
40372;BME280;28564;53.346;-6.554;2023-09-30T08:17:41;101271.88;;;16.94;46.70
40372;BME280;28564;53.346;-6.554;2023-09-30T08:20:09;101266.63;;;16.99;46.67
40372;BME280;28564;53.346;-6.554;2023-09-30T08:22:37;101259.71;;;17.02;46.64
40372;BME280;28564;53.346;-6.554;2023-09-30T08:25:05;101252.10;;;17.04;46.68
40372;BME280;28564;53.346;-6.554;2023-09-30T08:27:33;101250.61;;;17.14;46.74
40372;BME280;28564;53.346;-6.554;2023-09-30T08:30:00;101251.20;;;17.02;46.72
40372;BME280;28564;53.346;-6.554;2023-09-30T08:32:27;101255.06;;;17.30;46.57
40372;BME280;28564;53.346;-6.554;2023-09-30T08:34:54;101257.79;;;17.13;46.57
40372;BME280;28564;53.346;-6.554;2023-09-30T08:37:21;101259.17;;;17.36;46.51
40372;BME280;28564;53.346;-6.554;2023-09-30T08:39:48;101253.24;;;17.13;46.55
40372;BME280;28564;53.346;-6.554;2023-09-30T08:42:17;101249.23;;;17.40;46.63
40372;BME280;28564;53.346;-6.554;2023-09-30T08:44:44;101248.69;;;17.44;46.66
40372;BME280;28564;53.346;-6.554;2023-09-30T08:47:13;101248.40;;;17.51;46.70
40372;BME280;28564;53.346;-6.554;2023-09-30T08:49:41;101247.50;;;17.54;46.62
40372;BME280;28564;53.346;-6.554;2023-09-30T08:52:10;101246.80;;;17.62;46.67
40372;BME280;28564;53.346;-6.554;2023-09-30T08:54:39;101253.42;;;17.51;46.65
40372;BME280;28564;53.346;-6.554;2023-09-30T08:57:08;101254.55;;;17.61;46.59
40372;BME280;28564;53.346;-6.554;2023-09-30T08:59:37;101255.03;;;17.44;46.45
40372;BME280;28564;53.346;-6.554;2023-09-30T09:02:08;101253.59;;;17.76;46.44
40372;BME280;28564;53.346;-6.554;2023-09-30T09:04:36;101253.40;;;17.57;46.44
40372;BME280;28564;53.346;-6.554;2023-09-30T09:07:04;101252.82;;;17.87;46.38
40372;BME280;28564;53.346;-6.554;2023-09-30T09:09:31;101245.45;;;17.86;46.40
40372;BME280;28564;53.346;-6.554;2023-09-30T09:11:58;101248.88;;;17.59;46.50
40372;BME280;28564;53.346;-6.554;2023-09-30T09:14:37;101252.22;;;17.62;46.51
40372;BME280;28564;53.346;-6.554;2023-09-30T09:17:05;101245.33;;;17.62;46.55
40372;BME280;28564;53.346;-6.554;2023-09-30T09:19:32;101245.12;;;17.63;46.56
40372;BME280;28564;53.346;-6.554;2023-09-30T09:22:00;101241.62;;;17.90;46.61
40372;BME280;28564;53.346;-6.554;2023-09-30T09:24:30;101239.65;;;17.62;46.68
40372;BME280;28564;53.346;-6.554;2023-09-30T09:27:15;101225.61;;;17.67;46.75
40372;BME280;28564;53.346;-6.554;2023-09-30T09:29:43;101214.56;;;17.69;46.68
40372;BME280;28564;53.346;-6.554;2023-09-30T09:32:12;101208.33;;;17.62;46.73
40372;BME280;28564;53.346;-6.554;2023-09-30T09:34:41;101204.69;;;17.61;46.90
40372;BME280;28564;53.346;-6.554;2023-09-30T09:37:16;101206.52;;;17.64;46.98
40372;BME280;28564;53.346;-6.554;2023-09-30T09:39:52;101204.27;;;17.66;46.98
40372;BME280;28564;53.346;-6.554;2023-09-30T09:42:28;101200.16;;;17.92;47.00
40372;BME280;28564;53.346;-6.554;2023-09-30T09:44:57;101196.51;;;17.68;47.03
40372;BME280;28564;53.346;-6.554;2023-09-30T09:47:24;101195.89;;;17.68;47.12
40372;BME280;28564;53.346;-6.554;2023-09-30T09:49:52;101192.44;;;17.71;47.22
40372;BME280;28564;53.346;-6.554;2023-09-30T09:52:21;101188.18;;;17.73;47.21
40372;BME280;28564;53.346;-6.554;2023-09-30T09:54:50;101185.05;;;17.98;47.29
40372;BME280;28564;53.346;-6.554;2023-09-30T09:57:19;101186.65;;;17.96;47.32
40372;BME280;28564;53.346;-6.554;2023-09-30T09:59:47;101188.12;;;17.69;47.37
40372;BME280;28564;53.346;-6.554;2023-09-30T10:02:16;101182.59;;;17.67;47.42
40372;BME280;28564;53.346;-6.554;2023-09-30T10:04:44;101175.22;;;17.65;47.53
40372;BME280;28564;53.346;-6.554;2023-09-30T10:07:14;101163.92;;;17.89;47.64
40372;BME280;28564;53.346;-6.554;2023-09-30T10:09:47;101157.17;;;17.84;47.81
40372;BME280;28564;53.346;-6.554;2023-09-30T10:12:19;101153.67;;;17.53;47.91
40372;BME280;28564;53.346;-6.554;2023-09-30T10:14:46;101144.98;;;17.50;48.02
40372;BME280;28564;53.346;-6.554;2023-09-30T10:17:13;101133.44;;;17.47;48.04
40372;BME280;28564;53.346;-6.554;2023-09-30T10:20:04;101123.97;;;17.41;48.15
40372;BME280;28564;53.346;-6.554;2023-09-30T10:22:33;101122.61;;;17.86;48.32
40372;BME280;28564;53.346;-6.554;2023-09-30T10:25:33;101121.20;;;17.41;48.40
40372;BME280;28564;53.346;-6.554;2023-09-30T10:28:32;101117.84;;;17.58;48.27
40372;BME280;28564;53.346;-6.554;2023-09-30T10:31:16;101115.01;;;17.52;48.05
40372;BME280;28564;53.346;-6.554;2023-09-30T10:34:49;101112.79;;;17.88;47.90
40372;BME280;28564;53.346;-6.554;2023-09-30T10:37:20;101116.57;;;17.94;47.83
40372;BME280;28564;53.346;-6.554;2023-09-30T10:39:56;101115.38;;;17.80;47.86
40372;BME280;28564;53.346;-6.554;2023-09-30T10:42:56;101118.72;;;17.92;47.85
40372;BME280;28564;53.346;-6.554;2023-09-30T10:45:44;101117.23;;;18.00;47.85
40372;BME280;28564;53.346;-6.554;2023-09-30T10:48:44;101121.47;;;18.09;47.70
40372;BME280;28564;53.346;-6.554;2023-09-30T10:51:14;101122.03;;;17.83;47.63
40372;BME280;28564;53.346;-6.554;2023-09-30T10:53:48;101115.45;;;17.82;47.66
40372;BME280;28564;53.346;-6.554;2023-09-30T10:56:16;101110.79;;;18.01;47.67
40372;BME280;28564;53.346;-6.554;2023-09-30T10:58:44;101109.00;;;17.76;47.77
40372;BME280;28564;53.346;-6.554;2023-09-30T11:01:12;101099.59;;;17.74;47.85
40372;BME280;28564;53.346;-6.554;2023-09-30T11:03:40;101098.28;;;17.71;47.95
40372;BME280;28564;53.346;-6.554;2023-09-30T11:06:08;101097.53;;;17.97;48.13
40372;BME280;28564;53.346;-6.554;2023-09-30T11:08:38;101095.07;;;17.79;48.09
40372;BME280;28564;53.346;-6.554;2023-09-30T11:11:07;101084.57;;;17.77;48.04
40372;BME280;28564;53.346;-6.554;2023-09-30T11:13:35;101081.46;;;17.79;48.19
40372;BME280;28564;53.346;-6.554;2023-09-30T11:16:03;101084.26;;;18.00;48.32
40372;BME280;28564;53.346;-6.554;2023-09-30T11:18:31;101081.13;;;17.83;48.58
40372;BME280;28564;53.346;-6.554;2023-09-30T11:21:08;101078.02;;;18.17;48.94
40372;BME280;28564;53.346;-6.554;2023-09-30T11:23:37;101074.76;;;17.82;49.08
40372;BME280;28564;53.346;-6.554;2023-09-30T11:26:05;101063.35;;;17.74;49.12
40372;BME280;28564;53.346;-6.554;2023-09-30T11:28:37;101061.28;;;17.99;49.35
40372;BME280;28564;53.346;-6.554;2023-09-30T11:31:08;101056.88;;;17.79;49.43
40372;BME280;28564;53.346;-6.554;2023-09-30T11:33:48;101049.93;;;17.83;49.32
40372;BME280;28564;53.346;-6.554;2023-09-30T11:36:15;101033.61;;;18.14;49.26
40372;BME280;28564;53.346;-6.554;2023-09-30T11:38:45;101024.07;;;18.18;49.27
40372;BME280;28564;53.346;-6.554;2023-09-30T11:41:14;101017.92;;;18.14;49.25
40372;BME280;28564;53.346;-6.554;2023-09-30T11:43:59;101013.86;;;17.78;49.20
40372;BME280;28564;53.346;-6.554;2023-09-30T11:46:27;101004.16;;;17.64;49.09
40372;BME280;28564;53.346;-6.554;2023-09-30T11:48:57;100999.13;;;17.74;48.95
40372;BME280;28564;53.346;-6.554;2023-09-30T11:51:25;100998.31;;;17.61;49.12
40372;BME280;28564;53.346;-6.554;2023-09-30T11:53:53;100994.15;;;17.54;49.24
40372;BME280;28564;53.346;-6.554;2023-09-30T11:56:20;100986.35;;;17.64;49.26
40372;BME280;28564;53.346;-6.554;2023-09-30T11:58:47;100974.54;;;17.36;49.54
40372;BME280;28564;53.346;-6.554;2023-09-30T12:01:15;100969.98;;;17.60;49.81
40372;BME280;28564;53.346;-6.554;2023-09-30T12:03:42;100962.70;;;17.61;49.89
40372;BME280;28564;53.346;-6.554;2023-09-30T12:06:09;100953.57;;;17.65;49.83
40372;BME280;28564;53.346;-6.554;2023-09-30T12:08:36;100944.66;;;17.39;49.84
40372;BME280;28564;53.346;-6.554;2023-09-30T12:11:04;100931.81;;;17.57;49.67
40372;BME280;28564;53.346;-6.554;2023-09-30T12:13:31;100922.60;;;17.54;49.57
40372;BME280;28564;53.346;-6.554;2023-09-30T12:15:59;100913.93;;;17.49;49.51
40372;BME280;28564;53.346;-6.554;2023-09-30T12:18:26;100909.60;;;17.55;49.78
40372;BME280;28564;53.346;-6.554;2023-09-30T12:20:53;100910.08;;;17.38;49.84
40372;BME280;28564;53.346;-6.554;2023-09-30T12:23:20;100908.01;;;17.64;49.94
40372;BME280;28564;53.346;-6.554;2023-09-30T12:25:48;100911.09;;;17.64;49.83
40372;BME280;28564;53.346;-6.554;2023-09-30T12:28:16;100903.71;;;17.62;49.78
40372;BME280;28564;53.346;-6.554;2023-09-30T12:30:44;100889.66;;;17.39;49.85
40372;BME280;28564;53.346;-6.554;2023-09-30T12:33:10;100883.57;;;17.63;49.76
40372;BME280;28564;53.346;-6.554;2023-09-30T12:35:38;100873.25;;;17.56;49.66
40372;BME280;28564;53.346;-6.554;2023-09-30T12:38:05;100859.81;;;17.50;49.75
40372;BME280;28564;53.346;-6.554;2023-09-30T12:40:32;100849.93;;;17.49;49.95
40372;BME280;28564;53.346;-6.554;2023-09-30T12:42:59;100842.98;;;17.34;50.11
40372;BME280;28564;53.346;-6.554;2023-09-30T12:45:27;100837.32;;;17.65;49.96
40372;BME280;28564;53.346;-6.554;2023-09-30T12:47:54;100830.86;;;17.47;49.97